createdAt,value
2019-05-25T00:01:16.154Z,5.65
2019-05-25T00:03:45.991Z,5.77
2019-05-25T00:06:15.854Z,6.25
2019-05-25T00:08:45.666Z,5.87
2019-05-25T00:11:15.463Z,6.30
2019-05-25T00:13:45.309Z,7.10
2019-05-25T00:16:15.142Z,7.58
2019-05-25T00:18:45.066Z,6.87
2019-05-25T00:21:14.950Z,6.50
2019-05-25T00:23:44.803Z,6.40
2019-05-25T00:26:14.605Z,6.15
2019-05-25T00:28:44.498Z,6.25
2019-05-25T00:31:14.538Z,6.47
2019-05-25T00:33:44.394Z,6.55
2019-05-25T00:36:14.485Z,6.00
2019-05-25T00:38:44.419Z,6.42
2019-05-25T00:41:14.598Z,8.05
2019-05-25T00:43:44.477Z,6.12
2019-05-25T00:46:14.337Z,6.45
2019-05-25T00:48:44.174Z,6.62
2019-05-25T00:51:14.058Z,6.78
2019-05-25T00:53:43.922Z,6.83
2019-05-25T00:56:13.858Z,6.45
2019-05-25T00:58:43.721Z,7.17
2019-05-25T01:01:13.554Z,6.78
2019-05-25T01:03:43.435Z,7.00
2019-05-25T01:06:13.310Z,7.75
2019-05-25T01:08:43.154Z,5.90
2019-05-25T01:11:13.042Z,6.20
2019-05-25T01:13:43.062Z,6.15
2019-05-25T01:16:12.882Z,8.60
2019-05-25T01:18:42.739Z,6.83
2019-05-25T01:21:12.857Z,7.95
2019-05-25T01:23:42.744Z,7.17
2019-05-25T01:26:12.556Z,7.08
2019-05-25T01:28:42.368Z,8.08
2019-05-25T01:31:12.211Z,8.53
2019-05-25T01:33:42.172Z,7.40
2019-05-25T01:36:12.051Z,8.55
2019-05-25T01:38:42.024Z,6.95
2019-05-25T01:41:11.838Z,8.60
2019-05-25T01:43:41.682Z,7.00
2019-05-25T01:46:11.517Z,6.33
2019-05-25T01:48:41.379Z,6.70
2019-05-25T01:51:11.187Z,6.33
2019-05-25T01:53:41.054Z,6.22
2019-05-25T01:56:10.973Z,6.70
2019-05-25T01:58:40.916Z,6.58
2019-05-25T02:01:10.735Z,6.55
2019-05-25T02:03:40.582Z,6.90
2019-05-25T02:06:10.362Z,5.95
2019-05-25T02:08:40.275Z,6.47
2019-05-25T02:11:10.103Z,5.92
2019-05-25T02:13:39.950Z,5.90
2019-05-25T02:16:09.778Z,6.97
2019-05-25T02:18:40.672Z,6.87
2019-05-25T02:21:10.459Z,6.58
2019-05-25T02:23:40.302Z,6.40
2019-05-25T02:26:10.111Z,7.62
2019-05-25T02:28:39.895Z,6.85
2019-05-25T02:31:10.819Z,6.55
2019-05-25T02:33:40.702Z,7.27
2019-05-25T02:36:10.586Z,7.35
2019-05-25T02:38:40.385Z,7.60
2019-05-25T02:41:10.403Z,7.53
2019-05-25T02:43:40.488Z,7.33
2019-05-25T02:46:10.321Z,6.97
2019-05-25T02:48:40.197Z,7.90
2019-05-25T02:51:11.738Z,11.00
2019-05-25T02:53:41.537Z,6.67
2019-05-25T02:56:11.339Z,8.48
2019-05-25T02:58:41.241Z,6.60
2019-05-25T03:01:11.350Z,7.00
2019-05-25T03:03:41.155Z,6.47
2019-05-25T03:06:11.138Z,6.77
2019-05-25T03:08:41.432Z,6.92
2019-05-25T03:11:12.075Z,6.92
2019-05-25T03:13:43.077Z,6.72
2019-05-25T03:16:12.904Z,7.12
2019-05-25T03:18:42.727Z,7.10
2019-05-25T03:21:12.552Z,6.90
2019-05-25T03:23:42.502Z,7.00
2019-05-25T03:26:12.345Z,7.47
2019-05-25T03:28:42.208Z,6.92
2019-05-25T03:31:13.059Z,7.10
2019-05-25T03:33:42.945Z,7.30
2019-05-25T03:36:12.871Z,7.42
2019-05-25T03:38:42.671Z,7.58
2019-05-25T03:41:12.486Z,7.30
2019-05-25T03:43:42.374Z,7.50
2019-05-25T03:46:12.269Z,7.65
2019-05-25T03:48:43.116Z,7.47
2019-05-25T03:51:13.000Z,8.30
2019-05-25T03:53:42.899Z,8.10
2019-05-25T03:56:12.803Z,7.80
2019-05-25T03:58:42.771Z,8.13
2019-05-25T04:01:12.658Z,7.33
2019-05-25T04:03:42.452Z,7.70
2019-05-25T04:06:12.328Z,7.30
2019-05-25T04:08:42.166Z,8.68
2019-05-25T04:11:12.023Z,8.88
2019-05-25T04:13:42.840Z,8.08
2019-05-25T04:16:12.675Z,7.72
2019-05-25T04:18:42.514Z,8.38
2019-05-25T04:21:12.330Z,8.45
2019-05-25T04:23:42.123Z,7.70
2019-05-25T04:26:21.851Z,7.75
2019-05-25T04:28:43.671Z,10.53
2019-05-25T04:31:13.519Z,7.60
2019-05-25T04:33:43.425Z,8.13
2019-05-25T04:36:13.353Z,7.97
2019-05-25T04:38:43.374Z,7.53
2019-05-25T04:41:14.286Z,7.40
2019-05-25T04:43:44.102Z,7.62
2019-05-25T04:46:13.933Z,8.33
2019-05-25T04:48:43.827Z,7.80
2019-05-25T04:51:13.620Z,8.58
2019-05-25T04:53:43.406Z,9.13
2019-05-25T04:56:13.400Z,8.33
2019-05-25T04:58:43.261Z,9.25
2019-05-25T05:01:13.114Z,9.13
2019-05-25T05:03:42.934Z,8.40
2019-05-25T05:06:12.839Z,9.08
2019-05-25T05:08:42.678Z,9.35
2019-05-25T05:11:12.646Z,8.73
2019-05-25T05:13:42.464Z,9.05
2019-05-25T05:16:12.356Z,8.90
2019-05-25T05:18:42.235Z,8.80
2019-05-25T05:21:12.182Z,8.68
2019-05-25T05:23:42.023Z,8.33
2019-05-25T05:26:11.927Z,8.55
2019-05-25T05:28:41.799Z,9.15
2019-05-25T05:31:23.122Z,9.28
2019-05-25T05:33:43.306Z,9.65
2019-05-25T05:36:15.571Z,10.47
2019-05-25T05:38:46.432Z,9.75
2019-05-25T05:41:19.202Z,10.28
2019-05-25T05:43:50.789Z,10.08
2019-05-25T05:46:22.102Z,10.15
2019-05-25T05:48:53.328Z,10.32
2019-05-25T05:51:23.205Z,10.38
2019-05-25T05:53:56.669Z,10.80
2019-05-25T05:56:26.499Z,10.65
2019-05-25T05:58:56.404Z,9.78
2019-05-25T06:01:26.358Z,9.73
2019-05-25T06:03:56.385Z,9.75
2019-05-25T06:06:26.349Z,10.20
2019-05-25T06:08:56.147Z,8.88
2019-05-25T06:11:26.140Z,8.75
2019-05-25T06:13:55.955Z,9.20
2019-05-25T06:16:25.986Z,9.10
2019-05-25T06:18:55.811Z,9.18
2019-05-25T06:21:25.739Z,9.45
2019-05-25T06:23:55.553Z,8.80
2019-05-25T06:26:25.392Z,9.10
2019-05-25T06:28:55.408Z,8.48
2019-05-25T06:31:25.336Z,8.57
2019-05-25T06:33:55.134Z,8.45
2019-05-25T06:36:25.082Z,8.33
2019-05-25T06:38:54.935Z,8.63
2019-05-25T06:41:24.741Z,8.13
2019-05-25T06:43:54.882Z,8.05
2019-05-25T06:46:24.763Z,8.75
2019-05-25T06:48:54.809Z,7.72
2019-05-25T06:51:24.646Z,9.05
2019-05-25T06:53:54.650Z,7.62
2019-05-25T06:56:24.561Z,8.73
2019-05-25T06:58:54.534Z,7.63
2019-05-25T07:01:24.489Z,7.83
2019-05-25T07:03:54.534Z,7.22
2019-05-25T07:06:24.466Z,8.03
2019-05-25T07:08:54.386Z,7.60
2019-05-25T07:11:25.240Z,7.93
2019-05-25T07:13:55.297Z,7.25
2019-05-25T07:16:25.409Z,8.00
2019-05-25T07:18:55.545Z,7.10
2019-05-25T07:21:25.533Z,7.03
2019-05-25T07:23:56.693Z,8.03
2019-05-25T07:26:26.675Z,6.30
2019-05-25T07:28:56.540Z,7.25
2019-05-25T07:31:26.498Z,6.58
2019-05-25T07:33:56.426Z,6.83
2019-05-25T07:36:26.484Z,7.70
2019-05-25T07:38:56.356Z,8.83
2019-05-25T07:41:26.439Z,7.85
2019-05-25T07:43:56.399Z,7.05
2019-05-25T07:46:26.423Z,7.80
2019-05-25T07:48:56.359Z,7.35
2019-05-25T07:51:26.233Z,8.07
2019-05-25T07:53:56.084Z,9.28
2019-05-25T07:56:26.084Z,9.43
2019-05-25T07:58:56.075Z,6.85
2019-05-25T08:01:25.921Z,7.33
2019-05-25T08:03:55.801Z,7.50
2019-05-25T08:06:25.757Z,7.70
2019-05-25T08:08:55.814Z,7.65
2019-05-25T08:11:25.760Z,8.88
2019-05-25T08:13:55.731Z,8.93
2019-05-25T08:16:28.212Z,7.40
2019-05-25T08:18:58.123Z,7.92
2019-05-25T08:21:28.134Z,7.70
2019-05-25T08:23:57.982Z,8.43
2019-05-25T08:26:28.997Z,8.03
2019-05-25T08:28:58.944Z,8.30
2019-05-25T08:31:28.985Z,7.80
2019-05-25T08:33:58.834Z,9.15
2019-05-25T08:36:29.845Z,8.10
2019-05-25T08:39:00.056Z,9.83
2019-05-25T08:41:29.951Z,11.00
2019-05-25T08:43:59.853Z,8.75
2019-05-25T08:46:29.882Z,8.28
2019-05-25T08:48:59.830Z,8.25
2019-05-25T08:51:30.281Z,8.03
2019-05-25T08:54:00.203Z,9.05
2019-05-25T08:56:30.191Z,8.13
2019-05-25T08:59:00.253Z,8.53
2019-05-25T09:01:30.147Z,7.50
2019-05-25T09:04:00.050Z,9.73
2019-05-25T09:06:29.972Z,7.23
2019-05-25T09:08:59.870Z,8.35
2019-05-25T09:11:29.916Z,8.93
2019-05-25T09:13:59.854Z,8.80
2019-05-25T09:16:29.951Z,7.62
2019-05-25T09:18:59.799Z,7.42
2019-05-25T09:21:29.858Z,8.13
2019-05-25T09:23:59.841Z,8.20
2019-05-25T09:26:29.805Z,7.65
2019-05-25T09:29:04.387Z,8.65
2019-05-25T09:31:31.302Z,14.90
2019-05-25T09:34:01.183Z,8.40
2019-05-25T09:36:31.125Z,9.08
2019-05-25T09:39:00.997Z,10.08
2019-05-25T09:41:34.564Z,6.95
2019-05-25T09:44:06.063Z,10.05
2019-05-25T09:46:35.994Z,6.95
2019-05-25T09:49:05.830Z,8.08
2019-05-25T09:51:35.764Z,7.75
2019-05-25T09:54:05.892Z,8.85
2019-05-25T09:56:36.034Z,7.87
2019-05-25T09:59:19.143Z,7.58
2019-05-25T10:01:37.638Z,8.98
2019-05-25T10:04:07.601Z,9.95
2019-05-25T10:06:37.648Z,9.30
2019-05-25T10:09:08.035Z,8.25
2019-05-25T10:11:37.907Z,8.13
2019-05-25T10:14:07.882Z,7.80
2019-05-25T10:16:37.882Z,7.55
2019-05-25T10:19:14.663Z,7.47
2019-05-25T10:21:44.982Z,7.30
2019-05-25T10:24:15.189Z,7.45
2019-05-25T10:26:45.546Z,8.20
2019-05-25T10:29:15.646Z,8.53
2019-05-25T10:31:45.534Z,7.15
2019-05-25T10:34:15.395Z,7.33
2019-05-25T10:36:45.263Z,6.65
2019-05-25T10:39:15.162Z,7.73
2019-05-25T10:41:45.050Z,8.03
2019-05-25T10:44:14.970Z,7.25
2019-05-25T10:46:44.809Z,8.50
2019-05-25T10:49:14.761Z,8.27
2019-05-25T10:51:44.706Z,7.40
2019-05-25T10:54:14.713Z,7.10
2019-05-25T10:56:45.747Z,8.10
2019-05-25T10:59:15.559Z,5.15
2019-05-25T11:01:45.540Z,5.37
2019-05-25T11:04:15.399Z,4.47
2019-05-25T11:06:45.257Z,3.95
2019-05-25T11:09:15.106Z,3.92
2019-05-25T11:11:44.989Z,4.35
2019-05-25T11:14:15.131Z,2.33
2019-05-25T11:16:45.120Z,2.10
2019-05-25T11:19:15.087Z,2.55
2019-05-25T11:21:45.043Z,2.10
2019-05-25T11:24:14.887Z,2.22
2019-05-25T11:26:44.749Z,2.50
2019-05-25T11:29:14.815Z,2.37
2019-05-25T11:31:54.044Z,2.37
2019-05-25T11:34:16.343Z,2.37
2019-05-25T11:36:46.199Z,1.90
2019-05-25T11:39:16.035Z,1.92
2019-05-25T11:41:45.953Z,1.90
2019-05-25T11:44:17.031Z,1.40
2019-05-25T11:46:47.115Z,1.20
2019-05-25T11:49:22.359Z,3.15
2019-05-25T11:51:48.722Z,2.77
2019-05-25T11:54:18.535Z,1.45
2019-05-25T11:56:48.499Z,1.00
2019-05-25T11:59:18.322Z,0.82
2019-05-25T12:01:48.402Z,1.30
2019-05-25T12:04:18.279Z,1.50
2019-05-25T12:06:48.133Z,1.20
2019-05-25T12:09:18.086Z,1.47
2019-05-25T12:11:47.908Z,2.60
2019-05-25T12:14:17.946Z,2.90
2019-05-25T12:16:47.837Z,1.98
2019-05-25T12:19:17.773Z,1.90
2019-05-25T12:21:47.710Z,1.55
2019-05-25T12:24:17.534Z,2.00
2019-05-25T12:26:47.456Z,1.50
2019-05-25T12:29:17.331Z,2.15
2019-05-25T12:31:47.399Z,1.27
2019-05-25T12:34:17.292Z,1.20
2019-05-25T12:36:47.218Z,1.52
2019-05-25T12:39:17.148Z,1.53
2019-05-25T12:41:47.183Z,1.30
2019-05-25T12:44:17.030Z,2.50
2019-05-25T12:46:46.927Z,2.47
2019-05-25T12:49:16.851Z,2.05
2019-05-25T12:51:46.779Z,2.12
2019-05-25T12:54:16.608Z,1.90
2019-05-25T12:56:47.552Z,1.70
2019-05-25T12:59:18.501Z,1.20
2019-05-25T13:01:48.352Z,1.55
2019-05-25T13:04:18.167Z,1.20
2019-05-25T13:34:06.679Z,1.50
2019-05-25T13:36:36.619Z,1.43
2019-05-25T16:00:47.132Z,2.33
2019-05-25T16:03:17.790Z,2.40
2019-05-25T16:05:48.045Z,2.50
2019-05-25T16:08:19.057Z,4.00
2019-05-25T16:10:49.137Z,2.40
2019-05-25T16:13:20.063Z,3.30
2019-05-25T16:15:50.003Z,2.65
2019-05-25T16:18:20.011Z,2.85
2019-05-25T16:20:49.872Z,3.00
2019-05-25T16:23:19.811Z,3.00
2019-05-25T16:25:49.677Z,2.22
2019-05-25T16:28:19.702Z,3.67
2019-05-25T16:30:49.617Z,2.10
2019-05-25T16:33:19.605Z,2.30
2019-05-25T16:35:49.510Z,2.97
2019-05-25T16:43:17.261Z,4.10
2019-05-25T16:45:47.265Z,3.67
2019-05-25T16:50:46.815Z,3.43
2019-05-25T16:53:16.722Z,3.70
2019-05-25T16:55:46.539Z,5.63
2019-05-25T16:58:16.587Z,4.20
2019-05-25T17:00:46.444Z,3.80
2019-05-25T17:03:27.761Z,4.20
2019-05-25T17:05:48.355Z,4.08
2019-05-25T17:08:18.412Z,4.10
2019-05-25T17:10:48.542Z,4.65
2019-05-25T17:13:18.420Z,6.43
2019-05-25T17:15:48.305Z,4.10
2019-05-25T17:18:18.344Z,5.05
2019-05-25T17:20:48.355Z,4.25
2019-05-25T17:23:18.287Z,5.12
2019-05-25T17:25:48.503Z,5.97
2019-05-25T17:28:18.356Z,5.45
2019-05-25T17:30:48.312Z,5.37
2019-05-25T17:33:18.294Z,4.60
2019-05-25T17:35:48.239Z,6.12
2019-05-25T17:38:18.115Z,5.00
2019-05-25T17:40:48.110Z,5.45
2019-05-25T17:43:18.098Z,4.85
2019-05-25T17:45:48.237Z,4.78
2019-05-25T17:48:18.249Z,6.00
2019-05-25T17:50:48.243Z,5.83
2019-05-25T17:53:18.186Z,5.22
2019-05-25T17:55:48.248Z,4.67
2019-05-25T17:58:18.079Z,5.00
2019-05-25T18:00:50.455Z,5.72
2019-05-25T18:03:20.744Z,6.37
2019-05-25T18:05:50.810Z,4.95
2019-05-25T18:08:20.816Z,4.40
2019-05-25T18:10:54.332Z,4.47
2019-05-25T18:13:22.409Z,5.25
2019-05-25T18:15:52.319Z,5.67
2019-05-25T18:18:22.209Z,4.83
2019-05-25T18:20:52.080Z,4.35
2019-05-25T18:23:21.992Z,4.12
2019-05-25T18:25:52.034Z,4.00
2019-05-25T18:28:22.012Z,4.67
2019-05-25T18:30:52.027Z,4.60
2019-05-25T18:33:23.002Z,4.90
2019-05-25T18:35:52.976Z,4.83
2019-05-25T18:38:22.832Z,5.08
2019-05-25T18:40:52.818Z,4.50
2019-05-25T18:43:22.791Z,4.92
2019-05-25T18:45:52.718Z,4.20
2019-05-25T18:48:22.745Z,4.67
2019-05-25T18:50:52.764Z,4.78
2019-05-25T18:53:22.786Z,4.65
2019-05-25T18:55:52.897Z,4.17
2019-05-25T18:58:22.714Z,4.17
2019-05-25T19:00:52.751Z,3.67
2019-05-25T19:03:22.629Z,4.05
2019-05-25T19:05:53.399Z,4.60
2019-05-25T19:08:23.464Z,4.20
2019-05-25T19:10:53.594Z,3.22
2019-05-25T19:13:23.508Z,3.52
2019-05-25T19:15:53.431Z,4.25
2019-05-25T19:18:23.260Z,3.22
2019-05-25T19:20:53.364Z,2.70
2019-05-25T19:23:23.345Z,3.67
2019-05-25T19:25:53.338Z,3.45
2019-05-25T19:28:23.290Z,3.45
2019-05-25T19:30:54.290Z,3.10
2019-05-25T19:33:24.213Z,3.08
2019-05-25T19:35:54.590Z,4.25
2019-05-25T19:38:24.791Z,3.40
2019-05-25T19:40:54.664Z,2.90
2019-05-25T19:43:24.679Z,3.42
2019-05-25T19:45:54.668Z,3.40
2019-05-25T19:48:24.662Z,3.05
2019-05-25T19:50:56.399Z,3.52
2019-05-25T19:53:26.069Z,4.33
2019-05-25T19:55:56.010Z,4.05
2019-05-25T19:58:25.983Z,4.10
2019-05-25T20:00:55.844Z,3.30
2019-05-25T20:03:25.826Z,3.58
2019-05-25T20:05:55.673Z,3.20
2019-05-25T20:08:25.662Z,4.25
2019-05-25T20:10:55.896Z,3.15
2019-05-25T20:13:25.952Z,3.50
2019-05-25T20:15:55.834Z,5.08
2019-05-25T20:18:25.900Z,4.12
2019-05-25T20:20:55.910Z,3.75
2019-05-25T20:23:26.006Z,4.90
2019-05-25T20:25:55.838Z,5.67
2019-05-25T20:28:25.819Z,3.80
2019-05-25T20:30:55.686Z,4.05
2019-05-25T20:33:28.012Z,3.12
2019-05-25T20:35:57.407Z,3.87
2019-05-25T20:38:27.487Z,4.50
2019-05-25T20:40:57.330Z,3.50
2019-05-25T20:43:27.324Z,4.45
2019-05-25T20:45:57.273Z,4.47
2019-05-25T20:48:27.224Z,3.72
2019-05-25T20:50:57.141Z,4.75
2019-05-25T20:53:27.300Z,4.53
2019-05-25T20:55:57.470Z,4.37
2019-05-25T20:58:27.398Z,3.80
2019-05-25T21:00:57.334Z,3.77
2019-05-25T21:03:27.281Z,3.53
2019-05-25T21:05:57.270Z,3.93
2019-05-25T21:08:27.170Z,6.90
2019-05-25T21:10:57.065Z,3.30
2019-05-25T21:13:26.925Z,4.20
2019-05-25T21:15:56.735Z,3.20
2019-05-25T21:18:26.697Z,3.20
2019-05-25T21:20:56.560Z,3.27
2019-05-25T21:23:26.417Z,3.00
2019-05-25T21:25:56.264Z,5.90
2019-05-25T21:28:26.212Z,3.77
2019-05-25T21:30:56.039Z,4.30
2019-05-25T21:33:25.923Z,3.47
2019-05-25T21:36:07.557Z,4.03
2019-05-25T21:38:27.403Z,5.17
2019-05-25T21:40:57.334Z,5.07
2019-05-25T21:43:27.270Z,3.67
2019-05-25T21:45:57.196Z,3.97
2019-05-25T21:48:27.242Z,4.27
2019-05-25T21:50:57.067Z,4.67
2019-05-25T21:53:26.876Z,4.03
2019-05-25T21:55:56.725Z,3.47
2019-05-25T21:58:26.547Z,7.53
2019-05-25T22:00:56.432Z,5.33
2019-05-25T22:03:27.880Z,5.67
2019-05-25T22:05:57.754Z,3.40
2019-05-25T22:08:27.594Z,4.43
2019-05-25T22:10:57.482Z,4.33
2019-05-25T22:13:28.912Z,4.43
2019-05-25T22:15:58.912Z,5.53
2019-05-25T22:18:29.888Z,3.93
2019-05-25T22:20:59.835Z,4.03
2019-05-25T22:23:29.717Z,3.77
2019-05-25T22:25:59.659Z,5.77
2019-05-25T22:28:43.772Z,4.00
2019-05-25T22:31:01.418Z,5.40
2019-05-25T22:33:31.357Z,4.97
2019-05-25T22:36:01.335Z,3.63
2019-05-25T22:38:31.371Z,3.83
2019-05-25T22:41:01.272Z,3.70
2019-05-25T22:43:31.099Z,4.30
2019-05-25T22:46:00.966Z,4.77
2019-05-25T22:48:30.803Z,4.77
2019-05-25T22:51:00.761Z,4.90
2019-05-25T22:53:30.652Z,5.33
2019-05-25T22:56:00.520Z,4.03
2019-05-25T22:58:30.380Z,4.40
2019-05-25T23:01:00.225Z,3.77
2019-05-25T23:03:30.102Z,5.60
2019-05-25T23:05:59.950Z,4.10
2019-05-25T23:08:29.937Z,4.03
2019-05-25T23:10:59.799Z,4.27
2019-05-25T23:13:29.646Z,4.37
2019-05-25T23:15:59.547Z,6.03
2019-05-25T23:18:29.517Z,9.87
2019-05-25T23:20:59.435Z,13.03
2019-05-25T23:23:29.380Z,7.20
2019-05-25T23:25:59.242Z,4.77
2019-05-25T23:28:29.101Z,6.10
2019-05-25T23:30:58.982Z,11.37
2019-05-25T23:33:28.962Z,6.80
2019-05-25T23:35:58.863Z,5.27
2019-05-25T23:38:28.689Z,6.80
2019-05-25T23:40:58.529Z,5.10
2019-05-25T23:43:28.335Z,4.07
2019-05-25T23:45:58.271Z,5.13
2019-05-25T23:48:28.154Z,6.03
2019-05-25T23:50:58.034Z,4.03
2019-05-25T23:53:27.846Z,4.87
2019-05-25T23:55:57.737Z,5.87
2019-05-25T23:58:27.559Z,4.97
